Terminal Aerodrome Forecast
Issued by NWS Lake Charles, LA

Home | Current Version | Previous Version | Text Only | Print | Product List | Glossary On
Versions: 1 2 3 4 5 6 7 8 9 10 11 12 13 14
598
FTUS44 KLCH 300802 AAA
TAFARA
TAF AMD
KARA 300802Z 3008/3106 12007KT P6SM -SHRA VCTS SCT020 BKN050CB
      TEMPO 3008/3009 5SM -TSRA BR
     FM300900 VRB04KT P6SM VCSH BKN100
     FM301500 13010KT P6SM VCTS SCT040CB
     FM310100 VRB04KT P6SM BKN250=

USA.gov is the U.S. government's official web portal to all federal, state and local government web resources and services.